Airfield :
LOGIN :

Register | Disclaimer

   EN    FR    IT 

 










Legend :    VFR   Marginal VFR   IFR   Intensive IFR   Very Intensive IFR
Visi :
Ceiling :
>= 8 km
>= 3000ft
5 to 8 km
1000 to 3000 ft
1500m to 5 km
500 to 1000 ft
800 to 1500m
200 to 500 ft
< 800m
< 200 ft
Symbols :   Thunderstorms  Fog  Heavy snow  Heavy precipitations  Wind > 20 kt
SIGMETs :     Misc.  Thunderstorms  Icing  Turbulence  Mountain Waves  Volcanic Ashes







- Airport Elevation : 18 ft


LIPC - Cervia AFB Ravenna

CURRENT METAR :
  • 180655Z 25004KT 2500 BR NSC 13/11 Q1017 RMK SCT SCT200 VIS MIN 2500 WIND THR11 24004KT WIND THR29 25003KT YLO

EXPIRED METARs :
  • 180555Z 28004KT 1600 BR NSC 13/11 Q1016
  • 180455Z 25005KT 1600 BR FEW040 13/11 Q1016 RMK FEW VIS MIN 1600 WIND THR11 25004KT WIND THR29 26005KT YLO

TAF TAF LIPC
Valid from the 18 at 06:00 until the 18 at 15:00 UTC


180500Z 1806/1815 28005KT 3000 BR SCT015
TEMPO 1806/1807 1400 BR
BECMG 1807/1809 8000 NSW SCT040
No reported NOTAMs for that airfield.



MET'MAP, your aeronautical weather chart ! - Copyright ORBIFLY December 2007 - Disclaimer

ORBIFLY MET'MAP TEAM :

Programming & Development : Alexandra Zaïnal
Concept & Development : Baudouin d'Aumeries
Co-Development & Prog : Marc-Olivier Méhu
Technical & hardware support : Manuel Goepfert

Contact : metmap@orbifly.com




SOURCES & CREDITS :

   NOAA